createdAt,value
2022-12-12T00:02:18.065Z,85.79
2022-12-12T00:04:48.726Z,86.14
2022-12-12T00:07:19.344Z,86.07
2022-12-12T00:09:49.992Z,86.08
2022-12-12T00:12:20.596Z,86.28
2022-12-12T00:14:51.166Z,86.02
2022-12-12T00:17:24.502Z,86.06
2022-12-12T00:19:55.236Z,86.01
2022-12-12T00:22:25.927Z,85.86
2022-12-12T00:24:56.463Z,86.00
2022-12-12T00:27:27.381Z,85.97
2022-12-12T00:29:58.745Z,86.29
2022-12-12T00:32:31.943Z,86.07
2022-12-12T00:35:02.687Z,86.01
2022-12-12T00:37:33.803Z,85.87
2022-12-12T00:40:05.247Z,85.52
2022-12-12T00:42:35.874Z,85.48
2022-12-12T00:45:06.715Z,85.32
2022-12-12T00:47:40.133Z,85.62
2022-12-12T00:50:12.154Z,85.66
2022-12-12T00:52:42.844Z,86.02
2022-12-12T00:55:15.822Z,85.86
2022-12-12T00:57:46.489Z,86.28
2022-12-12T01:00:18.538Z,86.02
2022-12-12T01:02:52.261Z,86.40
2022-12-12T01:05:22.741Z,86.60
2022-12-12T01:07:53.347Z,86.75
2022-12-12T01:10:24.323Z,86.81
2022-12-12T01:12:54.973Z,86.77
2022-12-12T01:15:26.573Z,86.50
2022-12-12T01:18:00.091Z,86.79
2022-12-12T01:20:31.747Z,87.10
2022-12-12T01:23:02.628Z,87.22
2022-12-12T01:25:33.279Z,87.64
2022-12-12T01:28:03.992Z,87.58
2022-12-12T01:30:35.295Z,88.01
2022-12-12T01:33:08.580Z,87.92
2022-12-12T01:35:39.415Z,88.19
2022-12-12T01:38:10.247Z,87.87
2022-12-12T01:40:40.717Z,87.50
2022-12-12T01:43:14.589Z,87.20
2022-12-12T01:46:20.815Z,87.50
2022-12-12T01:48:59.120Z,87.21
2022-12-12T01:51:32.700Z,86.95
2022-12-12T01:54:09.541Z,86.92
2022-12-12T01:56:42.251Z,86.79
2022-12-12T01:59:15.919Z,86.36
2022-12-12T02:01:47.053Z,86.15
2022-12-12T02:04:21.130Z,86.10
2022-12-12T02:06:54.433Z,85.79
2022-12-12T02:09:28.138Z,85.64
2022-12-12T02:12:00.190Z,85.58
2022-12-12T02:14:34.782Z,85.51
2022-12-12T02:17:49.362Z,85.34
2022-12-12T02:20:55.082Z,85.60
2022-12-12T02:23:57.820Z,85.90
2022-12-12T02:27:04.200Z,85.61
2022-12-12T02:30:05.508Z,85.68
2022-12-12T02:32:49.814Z,85.78
2022-12-12T02:35:28.777Z,85.44
2022-12-12T02:38:08.339Z,85.22
2022-12-12T02:40:47.053Z,85.24
2022-12-12T02:43:29.140Z,85.13
2022-12-12T02:46:03.698Z,85.15
2022-12-12T02:48:42.615Z,85.23
2022-12-12T02:51:15.868Z,85.44
2022-12-12T02:53:46.393Z,85.10
2022-12-12T02:56:48.432Z,85.39
2022-12-12T02:59:24.471Z,85.11
2022-12-12T03:02:18.424Z,85.03
2022-12-12T03:05:16.379Z,85.00
2022-12-12T03:08:00.079Z,84.65
2022-12-12T03:10:39.839Z,84.60
2022-12-12T03:13:16.947Z,84.58
2022-12-12T03:15:56.728Z,84.49
2022-12-12T03:18:32.214Z,84.36
2022-12-12T03:21:08.498Z,84.90
2022-12-12T03:23:43.164Z,85.25
2022-12-12T03:26:18.601Z,85.19
2022-12-12T03:28:52.520Z,85.21
2022-12-12T03:31:27.501Z,85.11
2022-12-12T03:34:01.957Z,85.28
2022-12-12T03:36:41.127Z,85.38
2022-12-12T03:39:16.548Z,85.09
2022-12-12T03:41:51.065Z,85.51
2022-12-12T03:44:25.688Z,85.55
2022-12-12T03:47:00.249Z,85.77
2022-12-12T03:49:37.510Z,86.11
2022-12-12T03:52:16.949Z,86.15
2022-12-12T03:54:52.405Z,86.70
2022-12-12T03:57:25.184Z,86.49
2022-12-12T04:00:01.359Z,86.68
2022-12-12T04:02:40.355Z,86.81
2022-12-12T04:05:19.540Z,86.89
2022-12-12T04:07:57.771Z,86.91
2022-12-12T04:10:43.366Z,86.78
2022-12-12T04:13:28.848Z,86.91
2022-12-12T04:16:07.314Z,87.02
2022-12-12T04:18:47.148Z,86.68
2022-12-12T04:21:39.494Z,86.78
2022-12-12T04:24:24.241Z,86.64
2022-12-12T04:27:02.627Z,86.58
2022-12-12T04:29:40.648Z,86.53
2022-12-12T04:32:21.987Z,86.51
2022-12-12T04:35:00.830Z,86.47
2022-12-12T04:37:35.429Z,86.72
2022-12-12T04:40:12.947Z,86.45
2022-12-12T04:42:48.362Z,86.25
2022-12-12T04:45:23.625Z,86.44
2022-12-12T04:47:57.624Z,86.44
2022-12-12T04:50:32.581Z,86.55
2022-12-12T04:53:07.202Z,86.12
2022-12-12T04:55:43.215Z,86.13
2022-12-12T04:58:14.919Z,86.38
2022-12-12T05:00:54.464Z,86.13
2022-12-12T05:03:33.320Z,86.07
2022-12-12T05:06:09.786Z,85.76
2022-12-12T05:08:44.840Z,85.73
2022-12-12T05:11:21.614Z,85.93
2022-12-12T05:13:53.485Z,85.82
2022-12-12T05:16:29.297Z,85.89
2022-12-12T05:18:59.614Z,85.97
2022-12-12T05:21:30.573Z,85.99
2022-12-12T05:24:01.033Z,86.07
2022-12-12T05:26:36.153Z,86.08
2022-12-12T05:29:08.016Z,85.97
2022-12-12T05:31:39.041Z,85.64
2022-12-12T05:34:10.433Z,85.86
2022-12-12T05:36:41.042Z,85.80
2022-12-12T05:39:11.646Z,85.75
2022-12-12T05:41:45.232Z,85.37
2022-12-12T05:44:15.762Z,85.03
2022-12-12T05:46:46.410Z,85.01
2022-12-12T05:49:16.938Z,84.71
2022-12-12T05:51:47.911Z,84.89
2022-12-12T05:54:18.474Z,84.81
2022-12-12T05:56:51.770Z,84.57
2022-12-12T05:59:23.643Z,84.78
2022-12-12T06:01:54.698Z,84.45
2022-12-12T06:04:25.384Z,84.75
2022-12-12T06:06:56.099Z,84.82
2022-12-12T06:09:26.667Z,84.86
2022-12-12T06:11:59.901Z,84.56
2022-12-12T06:14:30.600Z,84.40
2022-12-12T06:17:01.187Z,84.13
2022-12-12T06:19:31.714Z,84.21
2022-12-12T06:22:02.334Z,83.95
2022-12-12T06:24:32.865Z,84.01
2022-12-12T06:27:06.100Z,84.11
2022-12-12T06:29:36.538Z,83.75
2022-12-12T06:32:07.687Z,83.92
2022-12-12T06:34:39.964Z,83.99
2022-12-12T06:37:17.052Z,84.04
2022-12-12T06:39:48.080Z,84.08
2022-12-12T06:42:21.475Z,84.29
2022-12-12T06:44:52.060Z,84.44
2022-12-12T06:47:22.672Z,84.48
2022-12-12T06:49:53.315Z,84.34
2022-12-12T06:52:23.937Z,84.04
2022-12-12T06:54:54.631Z,84.04
2022-12-12T06:57:27.874Z,83.85
2022-12-12T06:59:58.509Z,83.98
2022-12-12T07:02:30.245Z,83.98
2022-12-12T07:05:01.569Z,84.41
2022-12-12T07:07:33.806Z,84.52
2022-12-12T07:10:04.443Z,84.46
2022-12-12T07:12:37.904Z,84.72
2022-12-12T07:15:09.352Z,84.58
2022-12-12T07:17:39.938Z,84.67
2022-12-12T07:20:12.826Z,84.42
2022-12-12T07:22:43.565Z,84.65
2022-12-12T07:25:14.499Z,84.93
2022-12-12T07:27:47.895Z,84.91
2022-12-12T07:30:18.936Z,85.34
2022-12-12T07:32:49.389Z,85.35
2022-12-12T07:35:20.647Z,85.30
2022-12-12T07:37:51.376Z,85.17
2022-12-12T07:40:22.249Z,85.59
2022-12-12T07:42:55.575Z,85.55
2022-12-12T07:45:26.214Z,85.58
2022-12-12T07:47:56.887Z,85.66
2022-12-12T07:50:27.638Z,85.58
2022-12-12T07:52:58.226Z,85.37
2022-12-12T07:55:29.812Z,85.35
2022-12-12T07:58:03.121Z,85.52
2022-12-12T08:00:33.960Z,85.37
2022-12-12T08:03:04.891Z,85.49
2022-12-12T08:05:35.460Z,85.14
2022-12-12T08:08:06.010Z,85.45
2022-12-12T08:10:37.205Z,85.27
2022-12-12T08:13:10.706Z,85.44
2022-12-12T08:15:41.653Z,86.03
2022-12-12T08:18:12.349Z,85.65
2022-12-12T08:20:43.379Z,86.14
2022-12-12T08:23:13.928Z,86.21
2022-12-12T08:25:44.567Z,86.47
2022-12-12T08:28:19.062Z,86.56
2022-12-12T08:30:53.126Z,86.71
2022-12-12T08:33:23.638Z,86.66
2022-12-12T08:35:54.291Z,86.76
2022-12-12T08:38:24.923Z,86.84
2022-12-12T08:40:55.549Z,86.74
2022-12-12T08:43:29.332Z,86.89
2022-12-12T08:46:03.450Z,86.99
2022-12-12T08:48:34.103Z,87.22
2022-12-12T08:51:05.020Z,87.23
2022-12-12T08:53:35.727Z,87.38
2022-12-12T08:56:06.591Z,86.89
2022-12-12T08:58:39.750Z,86.79
2022-12-12T09:01:14.195Z,86.57
2022-12-12T09:03:44.849Z,86.50
2022-12-12T09:06:16.501Z,86.23
2022-12-12T09:08:49.435Z,85.96
2022-12-12T09:11:20.897Z,85.59
2022-12-12T09:13:54.034Z,85.73
2022-12-12T09:16:26.753Z,85.57
2022-12-12T09:18:57.644Z,85.66
2022-12-12T09:21:28.187Z,84.98
2022-12-12T09:23:59.177Z,85.02
2022-12-12T09:26:30.107Z,84.86
2022-12-12T09:29:03.408Z,84.75
2022-12-12T09:31:34.240Z,84.62
2022-12-12T09:34:04.858Z,84.38
2022-12-12T09:36:35.560Z,84.61
2022-12-12T09:39:06.739Z,84.16
2022-12-12T09:41:37.519Z,84.22
2022-12-12T09:44:16.120Z,83.85
2022-12-12T09:46:49.863Z,83.87
2022-12-12T09:49:29.544Z,83.79
2022-12-12T09:52:01.414Z,83.80
2022-12-12T09:54:32.300Z,83.55
2022-12-12T09:57:27.443Z,83.36
2022-12-12T10:00:08.499Z,83.85
2022-12-12T10:03:01.493Z,83.86
2022-12-12T10:05:40.655Z,83.93
2022-12-12T10:08:19.763Z,83.83
2022-12-12T10:10:54.451Z,83.41
2022-12-12T10:13:28.646Z,83.58
2022-12-12T10:16:08.615Z,83.38
2022-12-12T10:18:43.645Z,83.44
2022-12-12T10:21:21.874Z,83.62
2022-12-12T10:23:54.706Z,83.39
2022-12-12T10:26:28.580Z,83.33
2022-12-12T10:29:03.302Z,83.33
2022-12-12T10:31:47.385Z,83.32
2022-12-12T10:34:44.223Z,83.37
2022-12-12T10:37:31.524Z,83.29
2022-12-12T10:40:13.232Z,83.18
2022-12-12T10:42:50.214Z,83.35
2022-12-12T10:45:45.183Z,83.24
2022-12-12T10:48:18.517Z,83.22
2022-12-12T10:50:52.392Z,83.15
2022-12-12T10:53:24.360Z,83.04
2022-12-12T10:55:58.326Z,83.20
2022-12-12T10:58:29.716Z,83.20
2022-12-12T11:01:06.050Z,83.14
2022-12-12T11:03:42.856Z,83.14
2022-12-12T11:06:17.622Z,83.12
2022-12-12T11:08:57.547Z,83.09
2022-12-12T11:11:29.549Z,83.20
2022-12-12T11:14:02.360Z,83.33
2022-12-12T11:16:42.976Z,83.20
2022-12-12T11:19:24.553Z,83.48
2022-12-12T11:21:55.692Z,83.07
2022-12-12T11:24:33.143Z,83.35
2022-12-12T11:27:06.406Z,83.22
2022-12-12T11:29:44.407Z,82.80
2022-12-12T11:32:17.767Z,82.85
2022-12-12T11:34:54.689Z,82.54
2022-12-12T11:37:27.737Z,82.55
2022-12-12T11:40:00.288Z,82.71
2022-12-12T11:42:33.200Z,82.69
2022-12-12T11:45:06.074Z,82.39
2022-12-12T11:47:43.110Z,82.46
2022-12-12T11:50:25.744Z,82.33
2022-12-12T11:52:58.346Z,82.30
2022-12-12T11:55:42.321Z,82.33
2022-12-12T11:58:22.767Z,82.26
2022-12-12T12:01:00.520Z,81.75
2022-12-12T12:03:45.521Z,81.85
2022-12-12T12:06:33.288Z,82.01
2022-12-12T12:09:26.102Z,82.03
2022-12-12T12:12:04.397Z,82.20
2022-12-12T12:14:58.914Z,82.02
2022-12-12T12:17:42.400Z,81.84
2022-12-12T12:20:25.192Z,81.98
2022-12-12T12:23:07.875Z,82.18
2022-12-12T12:25:49.461Z,79.06
2022-12-12T12:28:54.333Z,77.52
2022-12-12T12:31:31.495Z,78.67
2022-12-12T12:34:12.258Z,85.24
2022-12-12T12:36:53.612Z,87.68
2022-12-12T12:39:43.923Z,87.99
2022-12-12T12:42:28.073Z,88.18
2022-12-12T12:45:06.589Z,94.73
2022-12-12T12:47:49.331Z,91.43
2022-12-12T12:50:22.704Z,88.42
2022-12-12T12:52:58.692Z,89.12
2022-12-12T12:55:38.300Z,95.46
2022-12-12T12:58:12.685Z,93.31
2022-12-12T13:00:43.926Z,89.83
2022-12-12T13:03:21.644Z,88.97
2022-12-12T13:05:57.538Z,89.51
2022-12-12T13:08:34.956Z,90.13
2022-12-12T13:11:12.238Z,95.15
2022-12-12T13:13:47.284Z,95.73
2022-12-12T13:16:21.367Z,95.85
2022-12-12T13:19:02.019Z,94.26
2022-12-12T13:21:38.732Z,89.08
2022-12-12T13:24:15.899Z,88.55
2022-12-12T13:26:56.977Z,89.14
2022-12-12T13:29:38.259Z,95.49
2022-12-12T13:32:40.027Z,92.97
2022-12-12T13:35:13.918Z,89.87
2022-12-12T13:37:48.904Z,89.42
2022-12-12T13:40:30.181Z,94.96
2022-12-12T13:43:09.899Z,93.89
2022-12-12T13:45:47.047Z,90.93
2022-12-12T13:48:47.120Z,89.76
2022-12-12T13:51:41.011Z,90.30
2022-12-12T13:54:56.032Z,93.76
2022-12-12T13:57:35.774Z,94.59
2022-12-12T14:00:23.159Z,91.13
2022-12-12T14:03:04.496Z,91.86
2022-12-12T14:05:39.951Z,96.82
2022-12-12T14:08:24.362Z,94.16
2022-12-12T14:10:59.374Z,91.75
2022-12-12T14:13:47.598Z,90.56
2022-12-12T14:16:28.527Z,96.72
2022-12-12T14:19:07.062Z,97.90
2022-12-12T14:21:44.647Z,93.04
2022-12-12T14:24:48.560Z,91.04
2022-12-12T14:27:19.113Z,96.80
2022-12-12T14:29:49.712Z,96.16
2022-12-12T14:32:41.236Z,91.93
2022-12-12T14:35:34.492Z,91.00
2022-12-12T14:38:18.600Z,94.50
2022-12-12T14:40:51.200Z,93.79
2022-12-12T14:43:25.391Z,93.53
2022-12-12T14:45:58.741Z,93.38
2022-12-12T14:48:33.436Z,92.81
2022-12-12T14:51:09.752Z,92.45
2022-12-12T14:53:49.849Z,92.38
2022-12-12T14:56:24.143Z,91.72
2022-12-12T14:59:03.098Z,91.64
2022-12-12T15:01:36.959Z,90.85
2022-12-12T15:04:12.647Z,90.78
2022-12-12T15:06:44.144Z,90.09
2022-12-12T15:09:22.338Z,85.54
2022-12-12T15:11:53.887Z,80.06
2022-12-12T15:14:28.677Z,79.52
2022-12-12T15:17:04.626Z,81.21
2022-12-12T15:19:42.314Z,83.98
2022-12-12T15:22:14.515Z,86.59
2022-12-12T15:24:45.490Z,88.63
2022-12-12T15:27:21.901Z,89.86
2022-12-12T15:29:52.952Z,91.14
2022-12-12T15:32:25.802Z,92.69
2022-12-12T15:35:08.192Z,94.12
2022-12-12T15:37:40.706Z,95.17
2022-12-12T15:40:22.875Z,96.70
2022-12-12T15:42:58.628Z,96.83
2022-12-12T15:45:33.918Z,95.57
2022-12-12T15:48:04.544Z,93.47
2022-12-12T15:50:51.960Z,93.44
2022-12-12T15:53:26.421Z,93.48
2022-12-12T15:56:06.257Z,95.18
2022-12-12T15:58:40.611Z,95.38
2022-12-12T16:01:22.304Z,97.56
2022-12-12T16:04:01.839Z,99.98
2022-12-12T16:06:40.200Z,100.00
2022-12-12T16:09:20.140Z,99.75
2022-12-12T16:11:52.021Z,97.74
2022-12-12T16:14:41.726Z,94.80
2022-12-12T16:17:18.854Z,96.14
2022-12-12T16:19:55.534Z,96.71
2022-12-12T16:22:39.877Z,96.29
2022-12-12T16:25:20.093Z,96.52
2022-12-12T16:27:55.153Z,96.68
2022-12-12T16:30:26.005Z,96.76
2022-12-12T16:32:57.906Z,97.40
2022-12-12T16:35:28.794Z,97.51
2022-12-12T16:38:01.954Z,98.09
2022-12-12T16:40:32.843Z,97.68
2022-12-12T16:43:10.994Z,100.00
2022-12-12T16:45:42.967Z,100.00
2022-12-12T16:48:18.065Z,100.00
2022-12-12T16:50:49.535Z,100.00
2022-12-12T16:53:23.089Z,99.22
2022-12-12T16:55:55.392Z,99.11
2022-12-12T16:58:26.321Z,98.46
2022-12-12T17:00:59.239Z,97.43
2022-12-12T17:03:30.672Z,97.53
2022-12-12T17:06:01.491Z,98.33
2022-12-12T17:08:35.206Z,100.00
2022-12-12T17:11:09.973Z,100.00
2022-12-12T17:13:43.051Z,100.00
2022-12-12T17:16:13.629Z,100.00
2022-12-12T17:18:44.305Z,93.95
2022-12-12T17:21:15.037Z,90.38
2022-12-12T17:23:49.490Z,91.66
2022-12-12T17:26:20.144Z,93.09
2022-12-12T17:28:51.220Z,93.76
2022-12-12T17:31:22.012Z,94.17
2022-12-12T17:33:52.710Z,95.74
2022-12-12T17:36:23.532Z,97.66
2022-12-12T17:38:56.886Z,98.41
2022-12-12T17:41:27.725Z,99.06
2022-12-12T17:43:58.686Z,99.74
2022-12-12T17:46:30.121Z,100.00
2022-12-12T17:49:02.299Z,100.00
2022-12-12T17:51:33.319Z,100.00
2022-12-12T17:54:06.830Z,100.00
2022-12-12T17:56:37.541Z,99.95
2022-12-12T17:59:11.008Z,99.94
2022-12-12T18:01:41.760Z,99.83
2022-12-12T18:04:12.473Z,99.43
2022-12-12T18:06:43.196Z,98.97
2022-12-12T18:09:17.266Z,98.37
2022-12-12T18:11:48.815Z,97.99
2022-12-12T18:14:19.958Z,97.99
2022-12-12T18:16:53.482Z,97.65
2022-12-12T18:19:27.478Z,97.26
2022-12-12T18:22:01.194Z,96.93
2022-12-12T18:24:35.084Z,95.90
2022-12-12T18:27:06.532Z,95.31
2022-12-12T18:29:37.140Z,94.98
2022-12-12T18:32:08.273Z,95.12
2022-12-12T18:34:39.170Z,94.70
2022-12-12T18:37:09.895Z,94.16
2022-12-12T18:39:43.397Z,94.07
2022-12-12T18:42:14.324Z,93.49
2022-12-12T18:44:45.051Z,92.99
2022-12-12T18:47:15.777Z,92.22
2022-12-12T18:49:46.459Z,91.38
2022-12-12T18:52:17.103Z,90.96
2022-12-12T18:54:52.307Z,91.27
2022-12-12T18:57:23.075Z,91.22
2022-12-12T18:59:54.023Z,91.95
2022-12-12T19:02:24.908Z,91.21
2022-12-12T19:04:55.683Z,91.61
2022-12-12T19:07:26.819Z,91.22
2022-12-12T19:10:01.016Z,90.72
2022-12-12T19:12:32.024Z,90.36
2022-12-12T19:15:18.442Z,89.21
2022-12-12T19:17:49.327Z,89.45
2022-12-12T19:20:20.236Z,92.82
2022-12-12T19:22:50.888Z,92.58
2022-12-12T19:25:24.219Z,92.13
2022-12-12T19:27:54.949Z,90.78
2022-12-12T19:30:28.172Z,91.73
2022-12-12T19:32:59.305Z,93.96
2022-12-12T19:35:29.795Z,94.92
2022-12-12T19:38:00.393Z,93.82
2022-12-12T19:40:33.580Z,92.92
2022-12-12T19:43:04.175Z,93.17
2022-12-12T19:45:34.715Z,95.47
2022-12-12T19:48:05.293Z,95.31
2022-12-12T19:50:38.207Z,88.76
2022-12-12T19:53:09.268Z,86.95
2022-12-12T19:55:57.647Z,88.73
2022-12-12T19:58:31.493Z,94.24
2022-12-12T20:01:11.346Z,97.00
2022-12-12T20:03:43.526Z,89.11
2022-12-12T20:06:15.529Z,85.77
2022-12-12T20:08:47.187Z,88.40
2022-12-12T20:11:23.136Z,91.93
2022-12-12T20:14:45.680Z,94.28
2022-12-12T20:17:16.568Z,96.13
2022-12-12T20:19:49.931Z,97.04
2022-12-12T20:22:21.944Z,97.22
2022-12-12T20:24:53.044Z,97.15
2022-12-12T20:27:27.375Z,97.02
2022-12-12T20:29:59.120Z,96.19
2022-12-12T20:32:32.334Z,95.88
2022-12-12T20:35:03.005Z,95.60
2022-12-12T20:37:33.778Z,95.39
2022-12-12T20:40:04.429Z,95.30
2022-12-12T20:42:37.601Z,95.27
2022-12-12T20:45:09.458Z,95.16
2022-12-12T20:47:40.110Z,95.66
2022-12-12T20:50:11.460Z,94.43
2022-12-12T20:52:43.926Z,92.29
2022-12-12T20:55:14.676Z,93.41
2022-12-12T20:57:47.916Z,94.54
2022-12-12T21:00:19.199Z,95.71
2022-12-12T21:02:49.795Z,97.05
2022-12-12T21:05:20.775Z,98.56
2022-12-12T21:07:51.549Z,98.75
2022-12-12T21:10:22.182Z,97.53
2022-12-12T21:12:55.439Z,96.08
2022-12-12T21:15:26.217Z,93.00
2022-12-12T21:17:56.956Z,92.01
2022-12-12T21:20:27.516Z,92.94
2022-12-12T21:22:58.189Z,94.80
2022-12-12T21:25:28.950Z,96.70
2022-12-12T21:28:02.312Z,97.80
2022-12-12T21:30:32.917Z,97.87
2022-12-12T21:33:03.636Z,97.56
2022-12-12T21:35:34.168Z,98.19
2022-12-12T21:38:04.621Z,98.08
2022-12-12T21:40:35.221Z,98.16
2022-12-12T21:43:08.321Z,98.15
2022-12-12T21:45:40.052Z,98.16
2022-12-12T21:48:10.528Z,98.26
2022-12-12T21:50:41.112Z,98.34
2022-12-12T21:53:23.952Z,98.32
2022-12-12T21:55:54.374Z,98.11
2022-12-12T21:58:27.513Z,97.87
2022-12-12T22:00:58.227Z,97.48
2022-12-12T22:03:28.733Z,97.38
2022-12-12T22:05:59.417Z,96.91
2022-12-12T22:08:30.264Z,96.69
2022-12-12T22:11:02.728Z,96.50
2022-12-12T22:13:40.158Z,96.13
2022-12-12T22:16:15.495Z,96.22
2022-12-12T22:18:46.291Z,95.94
2022-12-12T22:21:19.651Z,95.33
2022-12-12T22:23:51.367Z,94.95
2022-12-12T22:26:24.203Z,94.87
2022-12-12T22:28:58.873Z,94.66
2022-12-12T22:31:31.642Z,94.63
2022-12-12T22:34:04.408Z,92.89
2022-12-12T22:36:36.931Z,92.83
2022-12-12T22:39:09.373Z,92.75
2022-12-12T22:41:39.910Z,94.56
2022-12-12T22:44:17.797Z,93.70
2022-12-12T22:46:49.769Z,93.49
2022-12-12T22:49:22.726Z,95.88
2022-12-12T22:51:53.474Z,95.34
2022-12-12T22:54:24.131Z,95.18
2022-12-12T22:56:54.733Z,94.95
2022-12-12T22:59:30.617Z,93.25
2022-12-12T23:02:01.340Z,93.38
2022-12-12T23:04:31.943Z,94.02
2022-12-12T23:07:03.084Z,96.77
2022-12-12T23:09:33.810Z,96.85
2022-12-12T23:12:04.415Z,96.62
2022-12-12T23:14:37.518Z,96.59
2022-12-12T23:17:08.036Z,96.06
2022-12-12T23:19:38.785Z,96.36
2022-12-12T23:22:09.628Z,95.83
2022-12-12T23:24:40.461Z,95.60
2022-12-12T23:27:11.443Z,95.14
2022-12-12T23:29:45.005Z,95.06
2022-12-12T23:32:15.507Z,94.57
2022-12-12T23:34:46.111Z,94.46
2022-12-12T23:37:16.768Z,94.06
2022-12-12T23:39:47.357Z,93.97
2022-12-12T23:42:18.007Z,93.34
2022-12-12T23:44:51.691Z,91.85
2022-12-12T23:47:22.279Z,92.03
2022-12-12T23:49:52.771Z,91.95
2022-12-12T23:52:23.360Z,91.68
2022-12-12T23:54:54.280Z,90.82
2022-12-12T23:57:24.936Z,90.25
2022-12-12T23:59:58.041Z,89.89
